KPIT/PIT METAR and TAF weather

Enter ICAO airport designator
Station Type Date Time Source
KPIT METAR 2022/06/27 07:51 UTC NOAA

KPIT 270751Z 31009KT 10SM FEW014 BKN030 OVC045 19/16 A3001 RMK AO2 RAE05 SLP162 P0000 T01890161 $


Station Type Date Time Source
KPIT Decoded METAR 2022/06/27 07:51 UTC NOAA

GREATER PITTSBURGH INTERNATIONAL , PA, United States (KPIT) 40-29N 80-14W 357M
Jun 27, 2022 - 03:51 AM EDT / 2022.06.27 0751 UTC
Wind: from the NW (310 degrees) at 10 MPH (9 KT):0
Visibility: 10 mile(s):0
Sky conditions: overcast
Precipitation last hour: A trace
Temperature: 66.0 F (18.9 C)
Dew Point: 61.0 F (16.1 C)
Relative Humidity: 83%
Pressure (altimeter): 30.01 in. Hg (1016 hPa)
ob: KPIT 270751Z 31009KT 10SM FEW014 BKN030 OVC045 19/16 A3001 RMK AO2 RAE05 SLP162 P0000 T01890161
cycle: 8

Station Type Date Time Source
KPIT TAF 2022/06/27 08:02 UTC NOAA

TAF
AMD KPIT 270802Z 2708/2812 32009KT P6SM BKN025
FM270900 30006KT P6SM BKN250
FM271200 32010KT P6SM SKC

Example: see airport list